sensor_id;sensor_type;location;lat;lon;timestamp;P1;durP1;ratioP1;P2;durP2;ratioP2
52210;SDS011;38179;52.756;6.906;2023-10-31T00:02:19;23.10;;;20.63;;
52210;SDS011;38179;52.756;6.906;2023-10-31T00:04:45;26.17;;;22.17;;
52210;SDS011;38179;52.756;6.906;2023-10-31T00:07:11;24.98;;;22.13;;
52210;SDS011;38179;52.756;6.906;2023-10-31T00:09:37;27.77;;;21.95;;
52210;SDS011;38179;52.756;6.906;2023-10-31T00:12:04;23.40;;;20.50;;
52210;SDS011;38179;52.756;6.906;2023-10-31T00:14:30;23.08;;;20.63;;
52210;SDS011;38179;52.756;6.906;2023-10-31T00:16:57;22.15;;;19.83;;
52210;SDS011;38179;52.756;6.906;2023-10-31T00:19:23;22.80;;;20.60;;
52210;SDS011;38179;52.756;6.906;2023-10-31T00:21:49;22.75;;;20.48;;
52210;SDS011;38179;52.756;6.906;2023-10-31T00:24:15;25.33;;;21.70;;
52210;SDS011;38179;52.756;6.906;2023-10-31T00:26:41;22.88;;;20.48;;
52210;SDS011;38179;52.756;6.906;2023-10-31T00:29:07;23.23;;;20.73;;
52210;SDS011;38179;52.756;6.906;2023-10-31T00:31:32;25.08;;;20.60;;
52210;SDS011;38179;52.756;6.906;2023-10-31T00:34:00;24.67;;;21.83;;
52210;SDS011;38179;52.756;6.906;2023-10-31T00:36:27;26.73;;;22.60;;
52210;SDS011;38179;52.756;6.906;2023-10-31T00:38:52;31.38;;;23.45;;
52210;SDS011;38179;52.756;6.906;2023-10-31T00:41:21;24.35;;;21.45;;
52210;SDS011;38179;52.756;6.906;2023-10-31T00:43:47;23.73;;;20.08;;
52210;SDS011;38179;52.756;6.906;2023-10-31T00:46:13;23.88;;;21.38;;
52210;SDS011;38179;52.756;6.906;2023-10-31T00:48:39;22.42;;;20.23;;
52210;SDS011;38179;52.756;6.906;2023-10-31T00:51:05;24.35;;;21.45;;
52210;SDS011;38179;52.756;6.906;2023-10-31T00:53:31;25.60;;;21.67;;
52210;SDS011;38179;52.756;6.906;2023-10-31T00:55:57;25.80;;;23.20;;
52210;SDS011;38179;52.756;6.906;2023-10-31T00:58:23;27.05;;;23.35;;
52210;SDS011;38179;52.756;6.906;2023-10-31T01:00:49;27.98;;;24.42;;
52210;SDS011;38179;52.756;6.906;2023-10-31T01:03:15;25.85;;;23.13;;
52210;SDS011;38179;52.756;6.906;2023-10-31T01:05:41;25.75;;;23.08;;
52210;SDS011;38179;52.756;6.906;2023-10-31T01:08:07;28.65;;;24.13;;
52210;SDS011;38179;52.756;6.906;2023-10-31T01:10:33;26.73;;;23.90;;
52210;SDS011;38179;52.756;6.906;2023-10-31T01:12:58;26.90;;;24.02;;
52210;SDS011;38179;52.756;6.906;2023-10-31T01:15:24;26.67;;;23.75;;
52210;SDS011;38179;52.756;6.906;2023-10-31T01:17:50;25.67;;;23.05;;
52210;SDS011;38179;52.756;6.906;2023-10-31T01:20:16;28.60;;;24.13;;
52210;SDS011;38179;52.756;6.906;2023-10-31T01:22:42;27.05;;;24.33;;
52210;SDS011;38179;52.756;6.906;2023-10-31T01:25:08;30.63;;;27.33;;
52210;SDS011;38179;52.756;6.906;2023-10-31T01:27:33;28.75;;;25.80;;
52210;SDS011;38179;52.756;6.906;2023-10-31T01:29:59;29.48;;;25.67;;
52210;SDS011;38179;52.756;6.906;2023-10-31T01:32:25;29.83;;;26.65;;
52210;SDS011;38179;52.756;6.906;2023-10-31T01:34:51;33.65;;;27.45;;
52210;SDS011;38179;52.756;6.906;2023-10-31T01:37:17;28.95;;;25.95;;
52210;SDS011;38179;52.756;6.906;2023-10-31T01:39:44;32.30;;;26.77;;
52210;SDS011;38179;52.756;6.906;2023-10-31T01:42:13;30.60;;;26.63;;
52210;SDS011;38179;52.756;6.906;2023-10-31T01:44:40;32.85;;;28.08;;
52210;SDS011;38179;52.756;6.906;2023-10-31T01:47:06;29.65;;;26.48;;
52210;SDS011;38179;52.756;6.906;2023-10-31T01:49:32;30.83;;;26.13;;
52210;SDS011;38179;52.756;6.906;2023-10-31T01:51:58;35.22;;;28.70;;
52210;SDS011;38179;52.756;6.906;2023-10-31T01:54:26;34.10;;;28.40;;
52210;SDS011;38179;52.756;6.906;2023-10-31T01:56:54;36.20;;;29.75;;
52210;SDS011;38179;52.756;6.906;2023-10-31T01:59:27;34.13;;;28.23;;
52210;SDS011;38179;52.756;6.906;2023-10-31T02:01:53;31.92;;;26.58;;
52210;SDS011;38179;52.756;6.906;2023-10-31T02:04:23;16.73;;;15.13;;
52210;SDS011;38179;52.756;6.906;2023-10-31T02:06:49;14.60;;;13.20;;
52210;SDS011;38179;52.756;6.906;2023-10-31T02:09:15;11.63;;;10.63;;
52210;SDS011;38179;52.756;6.906;2023-10-31T02:11:41;11.27;;;10.38;;
52210;SDS011;38179;52.756;6.906;2023-10-31T02:14:07;11.32;;;10.32;;
52210;SDS011;38179;52.756;6.906;2023-10-31T02:16:33;10.55;;;9.75;;
52210;SDS011;38179;52.756;6.906;2023-10-31T02:18:59;10.35;;;9.55;;
52210;SDS011;38179;52.756;6.906;2023-10-31T02:21:25;10.30;;;9.50;;
52210;SDS011;38179;52.756;6.906;2023-10-31T02:23:56;10.27;;;9.38;;
52210;SDS011;38179;52.756;6.906;2023-10-31T02:26:23;10.25;;;9.45;;
52210;SDS011;38179;52.756;6.906;2023-10-31T02:28:49;10.38;;;9.48;;
52210;SDS011;38179;52.756;6.906;2023-10-31T02:31:15;10.43;;;9.63;;
52210;SDS011;38179;52.756;6.906;2023-10-31T02:33:41;10.43;;;9.63;;
52210;SDS011;38179;52.756;6.906;2023-10-31T02:36:06;10.00;;;9.20;;
52210;SDS011;38179;52.756;6.906;2023-10-31T02:38:33;10.52;;;9.73;;
52210;SDS011;38179;52.756;6.906;2023-10-31T02:40:59;9.95;;;9.15;;
52210;SDS011;38179;52.756;6.906;2023-10-31T02:43:24;10.32;;;9.43;;
52210;SDS011;38179;52.756;6.906;2023-10-31T02:45:50;10.82;;;9.80;;
52210;SDS011;38179;52.756;6.906;2023-10-31T02:48:16;10.10;;;9.20;;
52210;SDS011;38179;52.756;6.906;2023-10-31T02:50:42;10.15;;;9.35;;
52210;SDS011;38179;52.756;6.906;2023-10-31T02:53:08;10.65;;;9.57;;
52210;SDS011;38179;52.756;6.906;2023-10-31T02:55:34;10.20;;;9.40;;
52210;SDS011;38179;52.756;6.906;2023-10-31T02:58:00;10.57;;;9.52;;
52210;SDS011;38179;52.756;6.906;2023-10-31T03:00:25;10.60;;;9.63;;
52210;SDS011;38179;52.756;6.906;2023-10-31T03:02:52;10.35;;;9.45;;
52210;SDS011;38179;52.756;6.906;2023-10-31T03:05:17;10.77;;;9.77;;
52210;SDS011;38179;52.756;6.906;2023-10-31T03:07:43;10.60;;;9.55;;
52210;SDS011;38179;52.756;6.906;2023-10-31T03:10:10;10.45;;;9.55;;
52210;SDS011;38179;52.756;6.906;2023-10-31T03:12:36;10.88;;;9.85;;
52210;SDS011;38179;52.756;6.906;2023-10-31T03:15:05;10.43;;;9.52;;
52210;SDS011;38179;52.756;6.906;2023-10-31T03:17:31;10.75;;;9.65;;
52210;SDS011;38179;52.756;6.906;2023-10-31T03:19:57;10.23;;;9.43;;
52210;SDS011;38179;52.756;6.906;2023-10-31T03:22:23;10.38;;;9.48;;
52210;SDS011;38179;52.756;6.906;2023-10-31T03:24:49;10.65;;;9.65;;
52210;SDS011;38179;52.756;6.906;2023-10-31T03:27:14;10.52;;;9.57;;
52210;SDS011;38179;52.756;6.906;2023-10-31T03:29:41;10.75;;;9.57;;
52210;SDS011;38179;52.756;6.906;2023-10-31T03:32:06;10.73;;;9.65;;
52210;SDS011;38179;52.756;6.906;2023-10-31T03:34:32;11.30;;;10.20;;
52210;SDS011;38179;52.756;6.906;2023-10-31T03:36:58;10.93;;;9.80;;
52210;SDS011;38179;52.756;6.906;2023-10-31T03:39:24;11.00;;;9.90;;
52210;SDS011;38179;52.756;6.906;2023-10-31T03:41:50;14.10;;;10.40;;
52210;SDS011;38179;52.756;6.906;2023-10-31T03:44:16;11.00;;;10.00;;
52210;SDS011;38179;52.756;6.906;2023-10-31T03:46:41;10.82;;;9.73;;
52210;SDS011;38179;52.756;6.906;2023-10-31T03:49:07;11.25;;;10.15;;
52210;SDS011;38179;52.756;6.906;2023-10-31T03:51:34;12.68;;;9.90;;
52210;SDS011;38179;52.756;6.906;2023-10-31T03:54:00;12.43;;;9.73;;
52210;SDS011;38179;52.756;6.906;2023-10-31T03:56:26;10.75;;;9.75;;
52210;SDS011;38179;52.756;6.906;2023-10-31T03:58:52;10.75;;;9.77;;
52210;SDS011;38179;52.756;6.906;2023-10-31T04:01:18;12.57;;;9.73;;
52210;SDS011;38179;52.756;6.906;2023-10-31T04:03:44;10.85;;;9.73;;
52210;SDS011;38179;52.756;6.906;2023-10-31T04:06:09;10.68;;;9.68;;
52210;SDS011;38179;52.756;6.906;2023-10-31T04:08:35;11.02;;;9.85;;
52210;SDS011;38179;52.756;6.906;2023-10-31T04:11:01;11.13;;;10.02;;
52210;SDS011;38179;52.756;6.906;2023-10-31T04:13:27;11.77;;;10.68;;
52210;SDS011;38179;52.756;6.906;2023-10-31T04:15:53;11.57;;;10.15;;
52210;SDS011;38179;52.756;6.906;2023-10-31T04:18:19;12.15;;;10.80;;
52210;SDS011;38179;52.756;6.906;2023-10-31T04:20:45;11.60;;;10.50;;
52210;SDS011;38179;52.756;6.906;2023-10-31T04:23:10;11.25;;;10.23;;
52210;SDS011;38179;52.756;6.906;2023-10-31T04:25:37;11.95;;;10.73;;
52210;SDS011;38179;52.756;6.906;2023-10-31T04:28:03;11.80;;;10.80;;
52210;SDS011;38179;52.756;6.906;2023-10-31T04:30:29;12.27;;;10.68;;
52210;SDS011;38179;52.756;6.906;2023-10-31T04:32:55;11.02;;;9.73;;
52210;SDS011;38179;52.756;6.906;2023-10-31T04:35:20;11.25;;;10.20;;
52210;SDS011;38179;52.756;6.906;2023-10-31T04:37:46;11.07;;;10.07;;
52210;SDS011;38179;52.756;6.906;2023-10-31T04:40:12;10.65;;;9.75;;
52210;SDS011;38179;52.756;6.906;2023-10-31T04:42:38;11.48;;;10.23;;
52210;SDS011;38179;52.756;6.906;2023-10-31T04:45:07;10.43;;;9.52;;
52210;SDS011;38179;52.756;6.906;2023-10-31T04:47:33;10.73;;;9.77;;
52210;SDS011;38179;52.756;6.906;2023-10-31T04:49:59;11.32;;;10.20;;
52210;SDS011;38179;52.756;6.906;2023-10-31T04:52:25;10.85;;;9.75;;
52210;SDS011;38179;52.756;6.906;2023-10-31T04:54:51;10.95;;;9.95;;
52210;SDS011;38179;52.756;6.906;2023-10-31T04:57:17;10.70;;;9.68;;
52210;SDS011;38179;52.756;6.906;2023-10-31T04:59:43;10.75;;;9.75;;
52210;SDS011;38179;52.756;6.906;2023-10-31T05:02:09;10.70;;;9.70;;
52210;SDS011;38179;52.756;6.906;2023-10-31T05:04:38;10.63;;;9.63;;
52210;SDS011;38179;52.756;6.906;2023-10-31T05:07:04;10.60;;;9.50;;
52210;SDS011;38179;52.756;6.906;2023-10-31T05:09:30;10.65;;;9.65;;
52210;SDS011;38179;52.756;6.906;2023-10-31T05:11:56;10.27;;;9.32;;
52210;SDS011;38179;52.756;6.906;2023-10-31T05:14:22;10.68;;;9.68;;
52210;SDS011;38179;52.756;6.906;2023-10-31T05:16:48;11.13;;;10.02;;
52210;SDS011;38179;52.756;6.906;2023-10-31T05:19:14;10.50;;;9.60;;
52210;SDS011;38179;52.756;6.906;2023-10-31T05:21:39;11.02;;;10.13;;
52210;SDS011;38179;52.756;6.906;2023-10-31T05:24:05;11.07;;;9.45;;
52210;SDS011;38179;52.756;6.906;2023-10-31T05:26:32;11.30;;;10.30;;
52210;SDS011;38179;52.756;6.906;2023-10-31T05:28:58;10.68;;;9.60;;
52210;SDS011;38179;52.756;6.906;2023-10-31T05:31:24;10.77;;;9.77;;
52210;SDS011;38179;52.756;6.906;2023-10-31T05:33:50;11.38;;;10.15;;
52210;SDS011;38179;52.756;6.906;2023-10-31T05:36:20;10.98;;;9.98;;
52210;SDS011;38179;52.756;6.906;2023-10-31T05:38:50;11.88;;;10.13;;
52210;SDS011;38179;52.756;6.906;2023-10-31T05:41:16;11.73;;;10.45;;
52210;SDS011;38179;52.756;6.906;2023-10-31T05:43:43;11.50;;;10.32;;
52210;SDS011;38179;52.756;6.906;2023-10-31T05:46:09;13.30;;;10.20;;
52210;SDS011;38179;52.756;6.906;2023-10-31T05:48:38;11.60;;;10.40;;
52210;SDS011;38179;52.756;6.906;2023-10-31T05:51:15;11.52;;;10.20;;
52210;SDS011;38179;52.756;6.906;2023-10-31T05:53:43;12.05;;;10.85;;
52210;SDS011;38179;52.756;6.906;2023-10-31T05:56:11;12.45;;;10.57;;
52210;SDS011;38179;52.756;6.906;2023-10-31T05:58:39;11.30;;;10.13;;
52210;SDS011;38179;52.756;6.906;2023-10-31T06:01:05;11.77;;;10.30;;
52210;SDS011;38179;52.756;6.906;2023-10-31T06:03:32;11.63;;;10.43;;
52210;SDS011;38179;52.756;6.906;2023-10-31T06:05:58;13.43;;;10.82;;
52210;SDS011;38179;52.756;6.906;2023-10-31T06:08:25;11.13;;;10.13;;
52210;SDS011;38179;52.756;6.906;2023-10-31T06:10:54;11.38;;;10.27;;
52210;SDS011;38179;52.756;6.906;2023-10-31T06:13:21;10.95;;;9.85;;
52210;SDS011;38179;52.756;6.906;2023-10-31T06:15:47;12.07;;;10.32;;
52210;SDS011;38179;52.756;6.906;2023-10-31T06:18:13;11.80;;;10.60;;
52210;SDS011;38179;52.756;6.906;2023-10-31T06:20:39;11.50;;;10.30;;
52210;SDS011;38179;52.756;6.906;2023-10-31T06:23:05;11.20;;;10.07;;
52210;SDS011;38179;52.756;6.906;2023-10-31T06:25:31;11.65;;;10.02;;
52210;SDS011;38179;52.756;6.906;2023-10-31T06:27:57;11.57;;;10.48;;
52210;SDS011;38179;52.756;6.906;2023-10-31T06:30:22;11.88;;;10.68;;
52210;SDS011;38179;52.756;6.906;2023-10-31T06:32:53;12.07;;;10.90;;
52210;SDS011;38179;52.756;6.906;2023-10-31T06:37:45;11.65;;;10.55;;
52210;SDS011;38179;52.756;6.906;2023-10-31T06:40:11;12.23;;;10.57;;
52210;SDS011;38179;52.756;6.906;2023-10-31T06:42:37;11.73;;;10.52;;
52210;SDS011;38179;52.756;6.906;2023-10-31T06:45:03;11.65;;;10.65;;
52210;SDS011;38179;52.756;6.906;2023-10-31T06:47:30;12.57;;;10.73;;
52210;SDS011;38179;52.756;6.906;2023-10-31T06:49:56;12.40;;;11.20;;
52210;SDS011;38179;52.756;6.906;2023-10-31T06:52:21;12.07;;;11.00;;
52210;SDS011;38179;52.756;6.906;2023-10-31T06:54:47;13.15;;;11.85;;
52210;SDS011;38179;52.756;6.906;2023-10-31T06:57:13;13.05;;;11.75;;
52210;SDS011;38179;52.756;6.906;2023-10-31T06:59:40;13.07;;;11.68;;
52210;SDS011;38179;52.756;6.906;2023-10-31T07:02:06;12.02;;;10.80;;
52210;SDS011;38179;52.756;6.906;2023-10-31T07:04:34;12.80;;;11.63;;
52210;SDS011;38179;52.756;6.906;2023-10-31T07:07:00;12.00;;;10.90;;
52210;SDS011;38179;52.756;6.906;2023-10-31T07:09:26;12.23;;;10.73;;
52210;SDS011;38179;52.756;6.906;2023-10-31T07:11:52;12.18;;;10.98;;
52210;SDS011;38179;52.756;6.906;2023-10-31T07:14:18;12.65;;;10.85;;
52210;SDS011;38179;52.756;6.906;2023-10-31T07:16:47;12.30;;;10.70;;
52210;SDS011;38179;52.756;6.906;2023-10-31T07:19:14;11.77;;;10.63;;
52210;SDS011;38179;52.756;6.906;2023-10-31T07:21:39;12.27;;;11.18;;
52210;SDS011;38179;52.756;6.906;2023-10-31T07:24:05;11.63;;;10.63;;
52210;SDS011;38179;52.756;6.906;2023-10-31T07:26:34;12.90;;;11.00;;
52210;SDS011;38179;52.756;6.906;2023-10-31T07:29:00;12.60;;;11.38;;
52210;SDS011;38179;52.756;6.906;2023-10-31T07:31:26;12.65;;;11.02;;
52210;SDS011;38179;52.756;6.906;2023-10-31T07:33:52;12.50;;;11.23;;
52210;SDS011;38179;52.756;6.906;2023-10-31T07:36:18;13.05;;;11.18;;
52210;SDS011;38179;52.756;6.906;2023-10-31T07:38:44;12.25;;;11.13;;
52210;SDS011;38179;52.756;6.906;2023-10-31T07:41:10;12.30;;;10.77;;
52210;SDS011;38179;52.756;6.906;2023-10-31T07:43:36;12.35;;;11.15;;
52210;SDS011;38179;52.756;6.906;2023-10-31T07:46:01;12.60;;;11.38;;
52210;SDS011;38179;52.756;6.906;2023-10-31T07:48:27;12.45;;;11.35;;
52210;SDS011;38179;52.756;6.906;2023-10-31T07:50:54;12.75;;;11.55;;
52210;SDS011;38179;52.756;6.906;2023-10-31T07:53:20;13.27;;;12.00;;
52210;SDS011;38179;52.756;6.906;2023-10-31T07:55:46;12.45;;;11.35;;
52210;SDS011;38179;52.756;6.906;2023-10-31T07:58:12;12.32;;;11.23;;
52210;SDS011;38179;52.756;6.906;2023-10-31T08:00:38;12.07;;;10.98;;
52210;SDS011;38179;52.756;6.906;2023-10-31T08:03:04;11.57;;;10.40;;
52210;SDS011;38179;52.756;6.906;2023-10-31T08:05:30;12.45;;;11.15;;
52210;SDS011;38179;52.756;6.906;2023-10-31T08:07:56;12.15;;;11.00;;
52210;SDS011;38179;52.756;6.906;2023-10-31T08:10:22;11.73;;;10.68;;
52210;SDS011;38179;52.756;6.906;2023-10-31T08:12:48;13.27;;;11.23;;
52210;SDS011;38179;52.756;6.906;2023-10-31T08:15:13;12.10;;;10.85;;
52210;SDS011;38179;52.756;6.906;2023-10-31T08:17:41;12.00;;;10.75;;
52210;SDS011;38179;52.756;6.906;2023-10-31T08:20:07;11.63;;;10.52;;
52210;SDS011;38179;52.756;6.906;2023-10-31T08:22:33;12.75;;;11.25;;
52210;SDS011;38179;52.756;6.906;2023-10-31T08:24:59;12.45;;;11.25;;
52210;SDS011;38179;52.756;6.906;2023-10-31T08:27:24;14.20;;;11.43;;
52210;SDS011;38179;52.756;6.906;2023-10-31T08:29:50;12.18;;;10.77;;
52210;SDS011;38179;52.756;6.906;2023-10-31T08:32:16;12.02;;;11.00;;
52210;SDS011;38179;52.756;6.906;2023-10-31T08:34:42;12.18;;;10.98;;
52210;SDS011;38179;52.756;6.906;2023-10-31T08:37:08;11.88;;;10.68;;
52210;SDS011;38179;52.756;6.906;2023-10-31T08:39:34;14.82;;;11.20;;
52210;SDS011;38179;52.756;6.906;2023-10-31T08:42:00;12.02;;;10.85;;
52210;SDS011;38179;52.756;6.906;2023-10-31T08:44:26;12.82;;;11.18;;
52210;SDS011;38179;52.756;6.906;2023-10-31T08:46:52;11.65;;;10.60;;
52210;SDS011;38179;52.756;6.906;2023-10-31T08:49:18;12.20;;;10.93;;
52210;SDS011;38179;52.756;6.906;2023-10-31T08:51:44;13.40;;;11.27;;
52210;SDS011;38179;52.756;6.906;2023-10-31T08:54:10;12.88;;;11.20;;
52210;SDS011;38179;52.756;6.906;2023-10-31T08:56:36;13.75;;;11.05;;
52210;SDS011;38179;52.756;6.906;2023-10-31T08:59:02;11.68;;;10.48;;
52210;SDS011;38179;52.756;6.906;2023-10-31T09:01:28;10.80;;;9.80;;
52210;SDS011;38179;52.756;6.906;2023-10-31T09:03:54;12.00;;;10.90;;
52210;SDS011;38179;52.756;6.906;2023-10-31T09:06:20;11.57;;;10.38;;
52210;SDS011;38179;52.756;6.906;2023-10-31T09:08:46;12.70;;;10.00;;
52210;SDS011;38179;52.756;6.906;2023-10-31T09:11:12;11.07;;;10.07;;
52210;SDS011;38179;52.756;6.906;2023-10-31T09:13:38;13.95;;;10.05;;
52210;SDS011;38179;52.756;6.906;2023-10-31T09:16:04;10.90;;;9.70;;
52210;SDS011;38179;52.756;6.906;2023-10-31T09:18:30;10.77;;;9.80;;
52210;SDS011;38179;52.756;6.906;2023-10-31T09:20:56;10.82;;;9.73;;
52210;SDS011;38179;52.756;6.906;2023-10-31T09:23:22;10.98;;;9.80;;
52210;SDS011;38179;52.756;6.906;2023-10-31T09:25:48;10.35;;;9.45;;
52210;SDS011;38179;52.756;6.906;2023-10-31T09:28:14;11.20;;;10.15;;
52210;SDS011;38179;52.756;6.906;2023-10-31T09:30:40;13.45;;;9.90;;
52210;SDS011;38179;52.756;6.906;2023-10-31T09:33:06;10.88;;;9.77;;
52210;SDS011;38179;52.756;6.906;2023-10-31T09:35:32;10.55;;;9.55;;
52210;SDS011;38179;52.756;6.906;2023-10-31T09:37:59;10.77;;;9.70;;
52210;SDS011;38179;52.756;6.906;2023-10-31T09:40:25;9.90;;;9.10;;
52210;SDS011;38179;52.756;6.906;2023-10-31T09:42:51;12.55;;;9.65;;
52210;SDS011;38179;52.756;6.906;2023-10-31T09:45:17;11.07;;;9.77;;
52210;SDS011;38179;52.756;6.906;2023-10-31T09:47:43;10.38;;;9.48;;
52210;SDS011;38179;52.756;6.906;2023-10-31T09:50:09;10.68;;;9.52;;
52210;SDS011;38179;52.756;6.906;2023-10-31T09:52:36;10.13;;;9.32;;
52210;SDS011;38179;52.756;6.906;2023-10-31T09:55:02;10.30;;;9.40;;
52210;SDS011;38179;52.756;6.906;2023-10-31T09:57:30;11.63;;;10.35;;
52210;SDS011;38179;52.756;6.906;2023-10-31T09:59:56;10.68;;;9.52;;
52210;SDS011;38179;52.756;6.906;2023-10-31T10:02:22;10.98;;;9.77;;
52210;SDS011;38179;52.756;6.906;2023-10-31T10:04:48;10.30;;;9.35;;
52210;SDS011;38179;52.756;6.906;2023-10-31T10:07:17;11.50;;;9.52;;
52210;SDS011;38179;52.756;6.906;2023-10-31T10:09:47;10.82;;;9.75;;
52210;SDS011;38179;52.756;6.906;2023-10-31T10:12:13;10.43;;;9.63;;
52210;SDS011;38179;52.756;6.906;2023-10-31T10:14:40;11.18;;;10.02;;
52210;SDS011;38179;52.756;6.906;2023-10-31T10:19:47;10.95;;;9.68;;
52210;SDS011;38179;52.756;6.906;2023-10-31T10:22:29;10.38;;;9.48;;
52210;SDS011;38179;52.756;6.906;2023-10-31T10:24:55;10.80;;;9.75;;
52210;SDS011;38179;52.756;6.906;2023-10-31T10:27:21;10.35;;;9.48;;
52210;SDS011;38179;52.756;6.906;2023-10-31T10:29:47;10.93;;;9.90;;
52210;SDS011;38179;52.756;6.906;2023-10-31T10:32:12;11.90;;;9.88;;
52210;SDS011;38179;52.756;6.906;2023-10-31T10:34:38;11.15;;;9.68;;
52210;SDS011;38179;52.756;6.906;2023-10-31T10:37:07;10.23;;;9.20;;
52210;SDS011;38179;52.756;6.906;2023-10-31T10:39:34;11.38;;;9.73;;
52210;SDS011;38179;52.756;6.906;2023-10-31T10:42:02;10.32;;;9.43;;
52210;SDS011;38179;52.756;6.906;2023-10-31T10:44:36;11.05;;;10.02;;
52210;SDS011;38179;52.756;6.906;2023-10-31T10:47:04;9.85;;;9.07;;
52210;SDS011;38179;52.756;6.906;2023-10-31T10:49:35;10.50;;;9.48;;
52210;SDS011;38179;52.756;6.906;2023-10-31T10:54:53;10.15;;;9.25;;
52210;SDS011;38179;52.756;6.906;2023-10-31T10:57:36;10.60;;;9.70;;
52210;SDS011;38179;52.756;6.906;2023-10-31T11:00:19;10.35;;;9.45;;
52210;SDS011;38179;52.756;6.906;2023-10-31T11:02:49;10.43;;;9.63;;
52210;SDS011;38179;52.756;6.906;2023-10-31T11:05:18;10.10;;;9.23;;
52210;SDS011;38179;52.756;6.906;2023-10-31T11:07:44;9.85;;;9.05;;
52210;SDS011;38179;52.756;6.906;2023-10-31T11:10:11;10.15;;;9.35;;
52210;SDS011;38179;52.756;6.906;2023-10-31T11:12:38;9.93;;;9.02;;
52210;SDS011;38179;52.756;6.906;2023-10-31T11:15:04;9.60;;;8.80;;
52210;SDS011;38179;52.756;6.906;2023-10-31T11:17:32;10.55;;;9.55;;
52210;SDS011;38179;52.756;6.906;2023-10-31T11:20:00;10.43;;;9.38;;
52210;SDS011;38179;52.756;6.906;2023-10-31T11:22:36;10.82;;;9.85;;
52210;SDS011;38179;52.756;6.906;2023-10-31T11:25:06;11.07;;;10.02;;
52210;SDS011;38179;52.756;6.906;2023-10-31T11:27:34;10.90;;;9.80;;
52210;SDS011;38179;52.756;6.906;2023-10-31T11:30:06;10.35;;;9.45;;
52210;SDS011;38179;52.756;6.906;2023-10-31T11:33:02;11.18;;;10.07;;
52210;SDS011;38179;52.756;6.906;2023-10-31T11:35:30;10.90;;;9.90;;
52210;SDS011;38179;52.756;6.906;2023-10-31T11:38:05;10.93;;;9.85;;
52210;SDS011;38179;52.756;6.906;2023-10-31T11:40:33;11.52;;;9.65;;
52210;SDS011;38179;52.756;6.906;2023-10-31T11:43:04;10.75;;;9.75;;
52210;SDS011;38179;52.756;6.906;2023-10-31T11:48:16;10.60;;;9.43;;
52210;SDS011;38179;52.756;6.906;2023-10-31T11:50:42;10.45;;;9.55;;
52210;SDS011;38179;52.756;6.906;2023-10-31T11:55:39;10.52;;;9.43;;
52210;SDS011;38179;52.756;6.906;2023-10-31T12:00:49;10.93;;;9.93;;
52210;SDS011;38179;52.756;6.906;2023-10-31T12:03:16;10.50;;;9.57;;
52210;SDS011;38179;52.756;6.906;2023-10-31T12:05:52;11.00;;;10.00;;
52210;SDS011;38179;52.756;6.906;2023-10-31T12:08:32;10.88;;;9.77;;
52210;SDS011;38179;52.756;6.906;2023-10-31T12:11:15;10.43;;;9.35;;
52210;SDS011;38179;52.756;6.906;2023-10-31T12:13:42;10.60;;;9.55;;
52210;SDS011;38179;52.756;6.906;2023-10-31T12:16:19;10.75;;;9.65;;
52210;SDS011;38179;52.756;6.906;2023-10-31T12:24:07;10.18;;;9.23;;
52210;SDS011;38179;52.756;6.906;2023-10-31T12:26:34;10.50;;;9.57;;
52210;SDS011;38179;52.756;6.906;2023-10-31T12:29:07;10.70;;;9.70;;
52210;SDS011;38179;52.756;6.906;2023-10-31T12:31:40;10.77;;;9.75;;
52210;SDS011;38179;52.756;6.906;2023-10-31T12:34:12;11.20;;;10.10;;
52210;SDS011;38179;52.756;6.906;2023-10-31T12:36:39;10.90;;;9.90;;
52210;SDS011;38179;52.756;6.906;2023-10-31T12:39:07;11.05;;;10.00;;
52210;SDS011;38179;52.756;6.906;2023-10-31T12:41:35;10.55;;;9.65;;
52210;SDS011;38179;52.756;6.906;2023-10-31T12:44:05;10.65;;;9.75;;
52210;SDS011;38179;52.756;6.906;2023-10-31T12:46:38;10.68;;;9.70;;
52210;SDS011;38179;52.756;6.906;2023-10-31T12:49:12;10.57;;;9.52;;
52210;SDS011;38179;52.756;6.906;2023-10-31T12:52:01;10.20;;;9.30;;
52210;SDS011;38179;52.756;6.906;2023-10-31T12:54:32;10.32;;;9.38;;
52210;SDS011;38179;52.756;6.906;2023-10-31T12:57:03;11.10;;;9.88;;
52210;SDS011;38179;52.756;6.906;2023-10-31T12:59:34;10.55;;;9.43;;
52210;SDS011;38179;52.756;6.906;2023-10-31T13:02:05;10.60;;;9.65;;
52210;SDS011;38179;52.756;6.906;2023-10-31T13:04:33;10.27;;;9.48;;
52210;SDS011;38179;52.756;6.906;2023-10-31T13:07:02;10.80;;;9.85;;
52210;SDS011;38179;52.756;6.906;2023-10-31T13:09:33;10.88;;;9.90;;
52210;SDS011;38179;52.756;6.906;2023-10-31T13:12:05;11.52;;;10.52;;
52210;SDS011;38179;52.756;6.906;2023-10-31T13:14:32;11.32;;;10.18;;
52210;SDS011;38179;52.756;6.906;2023-10-31T13:17:00;10.90;;;10.00;;
52210;SDS011;38179;52.756;6.906;2023-10-31T13:19:27;11.77;;;10.68;;
52210;SDS011;38179;52.756;6.906;2023-10-31T13:21:53;11.45;;;10.45;;
52210;SDS011;38179;52.756;6.906;2023-10-31T13:24:19;11.05;;;10.02;;
52210;SDS011;38179;52.756;6.906;2023-10-31T13:26:45;11.15;;;10.18;;
52210;SDS011;38179;52.756;6.906;2023-10-31T13:29:16;10.95;;;10.02;;
52210;SDS011;38179;52.756;6.906;2023-10-31T13:31:46;10.88;;;9.93;;
52210;SDS011;38179;52.756;6.906;2023-10-31T13:34:11;10.77;;;9.85;;
52210;SDS011;38179;52.756;6.906;2023-10-31T13:36:37;11.02;;;10.02;;
52210;SDS011;38179;52.756;6.906;2023-10-31T13:39:03;10.93;;;9.85;;
52210;SDS011;38179;52.756;6.906;2023-10-31T13:41:29;10.70;;;9.80;;
52210;SDS011;38179;52.756;6.906;2023-10-31T13:43:55;10.38;;;9.48;;
52210;SDS011;38179;52.756;6.906;2023-10-31T13:46:21;9.90;;;9.00;;
52210;SDS011;38179;52.756;6.906;2023-10-31T13:48:48;10.35;;;9.45;;
52210;SDS011;38179;52.756;6.906;2023-10-31T13:51:14;10.82;;;9.75;;
52210;SDS011;38179;52.756;6.906;2023-10-31T13:53:40;10.70;;;9.73;;
52210;SDS011;38179;52.756;6.906;2023-10-31T13:56:06;11.02;;;9.95;;
52210;SDS011;38179;52.756;6.906;2023-10-31T13:58:32;11.00;;;9.63;;
52210;SDS011;38179;52.756;6.906;2023-10-31T14:00:58;11.13;;;10.02;;
52210;SDS011;38179;52.756;6.906;2023-10-31T14:03:24;11.27;;;10.20;;
52210;SDS011;38179;52.756;6.906;2023-10-31T14:05:50;11.48;;;10.48;;
52210;SDS011;38179;52.756;6.906;2023-10-31T14:08:16;11.00;;;9.93;;
52210;SDS011;38179;52.756;6.906;2023-10-31T14:10:42;10.60;;;9.60;;
52210;SDS011;38179;52.756;6.906;2023-10-31T14:13:11;11.07;;;10.07;;
52210;SDS011;38179;52.756;6.906;2023-10-31T14:15:37;10.32;;;9.48;;
52210;SDS011;38179;52.756;6.906;2023-10-31T14:18:03;10.32;;;9.50;;
52210;SDS011;38179;52.756;6.906;2023-10-31T14:20:29;10.63;;;9.65;;
52210;SDS011;38179;52.756;6.906;2023-10-31T14:22:55;10.88;;;9.80;;
52210;SDS011;38179;52.756;6.906;2023-10-31T14:25:21;12.38;;;10.70;;
52210;SDS011;38179;52.756;6.906;2023-10-31T14:27:47;12.10;;;11.00;;
52210;SDS011;38179;52.756;6.906;2023-10-31T14:30:12;11.32;;;10.10;;
52210;SDS011;38179;52.756;6.906;2023-10-31T14:32:39;16.42;;;13.57;;
52210;SDS011;38179;52.756;6.906;2023-10-31T14:35:05;12.43;;;11.10;;
52210;SDS011;38179;52.756;6.906;2023-10-31T14:37:32;14.52;;;12.80;;
52210;SDS011;38179;52.756;6.906;2023-10-31T14:39:58;11.20;;;10.27;;
52210;SDS011;38179;52.756;6.906;2023-10-31T14:42:24;13.60;;;11.02;;
52210;SDS011;38179;52.756;6.906;2023-10-31T14:44:49;12.02;;;10.93;;
52210;SDS011;38179;52.756;6.906;2023-10-31T14:47:15;11.68;;;10.52;;
52210;SDS011;38179;52.756;6.906;2023-10-31T14:49:41;10.98;;;10.00;;